sensor_id;sensor_type;location;lat;lon;timestamp;pressure;altitude;pressure_sealevel;temperature;humidity
44138;BME280;29800;55.942;37.314;2023-01-25T00:02:03;100983.06;;;0.53;61.91
44138;BME280;29800;55.942;37.314;2023-01-25T00:04:30;100979.97;;;0.48;61.77
44138;BME280;29800;55.942;37.314;2023-01-25T00:06:56;100976.59;;;0.46;61.83
44138;BME280;29800;55.942;37.314;2023-01-25T00:09:23;100982.28;;;0.43;61.43
44138;BME280;29800;55.942;37.314;2023-01-25T00:11:49;100970.41;;;0.36;61.44
44138;BME280;29800;55.942;37.314;2023-01-25T00:14:18;100978.41;;;0.28;62.14
44138;BME280;29800;55.942;37.314;2023-01-25T00:16:49;100976.50;;;0.20;62.37
44138;BME280;29800;55.942;37.314;2023-01-25T00:19:15;100972.13;;;0.19;62.62
44138;BME280;29800;55.942;37.314;2023-01-25T00:21:42;100966.03;;;0.17;62.16
44138;BME280;29800;55.942;37.314;2023-01-25T00:24:08;100956.09;;;0.17;62.49
44138;BME280;29800;55.942;37.314;2023-01-25T00:26:36;100948.34;;;0.14;62.50
44138;BME280;29800;55.942;37.314;2023-01-25T00:29:05;100942.56;;;0.09;62.46
44138;BME280;29800;55.942;37.314;2023-01-25T00:32:01;100947.03;;;0.18;62.89
44138;BME280;29800;55.942;37.314;2023-01-25T00:36:56;100939.47;;;0.04;62.99
44138;BME280;29800;55.942;37.314;2023-01-25T00:39:24;100939.25;;;-0.03;62.93
44138;BME280;29800;55.942;37.314;2023-01-25T00:41:51;100930.94;;;-0.09;63.06
44138;BME280;29800;55.942;37.314;2023-01-25T00:44:17;100929.13;;;-0.19;63.35
44138;BME280;29800;55.942;37.314;2023-01-25T00:46:43;100928.06;;;-0.26;63.83
44138;BME280;29800;55.942;37.314;2023-01-25T00:49:24;100921.50;;;-0.23;64.00
44138;BME280;29800;55.942;37.314;2023-01-25T00:51:52;100916.50;;;-0.36;64.41
44138;BME280;29800;55.942;37.314;2023-01-25T00:54:19;100927.56;;;-0.39;64.50
44138;BME280;29800;55.942;37.314;2023-01-25T00:56:45;100927.41;;;-0.38;64.67
44138;BME280;29800;55.942;37.314;2023-01-25T00:59:12;100932.66;;;-0.36;64.89
44138;BME280;29800;55.942;37.314;2023-01-25T01:01:40;100930.34;;;-0.31;65.09
44138;BME280;29800;55.942;37.314;2023-01-25T01:04:07;100932.91;;;-0.29;65.28
44138;BME280;29800;55.942;37.314;2023-01-25T01:06:37;100939.66;;;-0.25;65.07
44138;BME280;29800;55.942;37.314;2023-01-25T01:09:05;100929.34;;;-0.30;65.08
44138;BME280;29800;55.942;37.314;2023-01-25T01:11:32;100933.72;;;-0.29;65.58
44138;BME280;29800;55.942;37.314;2023-01-25T01:13:59;100927.38;;;-0.28;65.39
44138;BME280;29800;55.942;37.314;2023-01-25T01:16:26;100918.72;;;-0.31;65.30
44138;BME280;29800;55.942;37.314;2023-01-25T01:18:52;100911.44;;;-0.39;65.59
44138;BME280;29800;55.942;37.314;2023-01-25T01:21:19;100905.47;;;-0.43;65.81
44138;BME280;29800;55.942;37.314;2023-01-25T01:23:45;100904.38;;;-0.50;65.81
44138;BME280;29800;55.942;37.314;2023-01-25T01:26:13;100896.06;;;-0.57;65.64
44138;BME280;29800;55.942;37.314;2023-01-25T01:28:40;100895.38;;;-0.59;65.94
44138;BME280;29800;55.942;37.314;2023-01-25T01:31:09;100886.72;;;-0.52;65.94
44138;BME280;29800;55.942;37.314;2023-01-25T01:33:39;100885.31;;;-0.57;65.97
44138;BME280;29800;55.942;37.314;2023-01-25T01:36:10;100874.72;;;-0.58;66.43
44138;BME280;29800;55.942;37.314;2023-01-25T01:38:37;100883.75;;;-0.59;66.48
44138;BME280;29800;55.942;37.314;2023-01-25T01:41:03;100884.91;;;-0.62;66.66
44138;BME280;29800;55.942;37.314;2023-01-25T01:43:30;100872.59;;;-0.64;66.79
44138;BME280;29800;55.942;37.314;2023-01-25T01:46:23;100871.56;;;-0.53;66.82
44138;BME280;29800;55.942;37.314;2023-01-25T01:52:12;100865.94;;;-0.60;66.83
44138;BME280;29800;55.942;37.314;2023-01-25T01:54:56;100875.00;;;-0.61;67.08
44138;BME280;29800;55.942;37.314;2023-01-25T02:00:16;100873.47;;;-0.64;67.31
44138;BME280;29800;55.942;37.314;2023-01-25T02:02:45;100868.28;;;-0.75;67.16
44138;BME280;29800;55.942;37.314;2023-01-25T02:05:26;100881.88;;;-0.77;67.57
44138;BME280;29800;55.942;37.314;2023-01-25T02:07:56;100879.34;;;-0.78;67.58
44138;BME280;29800;55.942;37.314;2023-01-25T02:10:25;100883.00;;;-0.79;67.46
44138;BME280;29800;55.942;37.314;2023-01-25T02:12:54;100871.41;;;-0.80;68.05
44138;BME280;29800;55.942;37.314;2023-01-25T02:15:22;100874.25;;;-0.81;67.69
44138;BME280;29800;55.942;37.314;2023-01-25T02:17:48;100884.03;;;-0.80;67.60
44138;BME280;29800;55.942;37.314;2023-01-25T02:20:37;100882.13;;;-0.70;67.88
44138;BME280;29800;55.942;37.314;2023-01-25T02:25:43;100872.94;;;-0.77;67.64
44138;BME280;29800;55.942;37.314;2023-01-25T02:30:42;100883.69;;;-0.77;67.51
44138;BME280;29800;55.942;37.314;2023-01-25T02:33:09;100888.38;;;-0.79;68.11
44138;BME280;29800;55.942;37.314;2023-01-25T02:35:44;100888.34;;;-0.69;67.85
44138;BME280;29800;55.942;37.314;2023-01-25T02:38:13;100900.50;;;-0.65;67.74
44138;BME280;29800;55.942;37.314;2023-01-25T02:41:03;100898.75;;;-0.57;67.64
44138;BME280;29800;55.942;37.314;2023-01-25T02:43:33;100892.59;;;-0.67;67.63
44138;BME280;29800;55.942;37.314;2023-01-25T02:48:55;100898.81;;;-0.66;67.87
44138;BME280;29800;55.942;37.314;2023-01-25T02:51:23;100893.13;;;-0.63;68.08
44138;BME280;29800;55.942;37.314;2023-01-25T02:53:51;100897.38;;;-0.61;67.71
44138;BME280;29800;55.942;37.314;2023-01-25T02:56:17;100890.16;;;-0.60;67.95
44138;BME280;29800;55.942;37.314;2023-01-25T02:58:44;100900.06;;;-0.61;67.63
44138;BME280;29800;55.942;37.314;2023-01-25T03:01:11;100893.69;;;-0.60;67.73
44138;BME280;29800;55.942;37.314;2023-01-25T03:03:40;100882.22;;;-0.62;67.93
44138;BME280;29800;55.942;37.314;2023-01-25T03:06:08;100882.22;;;-0.62;67.72
44138;BME280;29800;55.942;37.314;2023-01-25T03:08:34;100870.50;;;-0.61;67.72
44138;BME280;29800;55.942;37.314;2023-01-25T03:11:02;100863.13;;;-0.59;67.68
44138;BME280;29800;55.942;37.314;2023-01-25T03:13:30;100858.41;;;-0.57;67.79
44138;BME280;29800;55.942;37.314;2023-01-25T03:16:04;100872.72;;;-0.56;67.57
44138;BME280;29800;55.942;37.314;2023-01-25T03:18:33;100860.41;;;-0.59;67.42
44138;BME280;29800;55.942;37.314;2023-01-25T03:23:32;100865.81;;;-0.59;67.55
44138;BME280;29800;55.942;37.314;2023-01-25T03:26:06;100862.81;;;-0.56;67.79
44138;BME280;29800;55.942;37.314;2023-01-25T03:28:33;100875.88;;;-0.61;67.63
44138;BME280;29800;55.942;37.314;2023-01-25T03:31:00;100853.50;;;-0.61;67.95
44138;BME280;29800;55.942;37.314;2023-01-25T03:33:26;100850.66;;;-0.60;67.71
44138;BME280;29800;55.942;37.314;2023-01-25T03:35:53;100856.03;;;-0.60;67.70
44138;BME280;29800;55.942;37.314;2023-01-25T03:38:20;100856.88;;;-0.59;67.73
44138;BME280;29800;55.942;37.314;2023-01-25T03:40:47;100869.47;;;-0.60;67.73
44138;BME280;29800;55.942;37.314;2023-01-25T03:43:16;100861.94;;;-0.56;67.83
44138;BME280;29800;55.942;37.314;2023-01-25T03:45:56;100860.53;;;-0.50;68.05
44138;BME280;29800;55.942;37.314;2023-01-25T03:48:23;100863.22;;;-0.50;67.43
44138;BME280;29800;55.942;37.314;2023-01-25T03:50:57;100863.06;;;-0.49;67.99
44138;BME280;29800;55.942;37.314;2023-01-25T03:53:27;100855.28;;;-0.52;67.92
44138;BME280;29800;55.942;37.314;2023-01-25T03:56:04;100862.53;;;-0.52;67.63
44138;BME280;29800;55.942;37.314;2023-01-25T03:58:34;100852.91;;;-0.55;67.69
44138;BME280;29800;55.942;37.314;2023-01-25T04:01:02;100850.66;;;-0.60;67.55
44138;BME280;29800;55.942;37.314;2023-01-25T04:03:29;100851.25;;;-0.66;67.84
44138;BME280;29800;55.942;37.314;2023-01-25T04:05:57;100858.09;;;-0.71;68.01
44138;BME280;29800;55.942;37.314;2023-01-25T04:08:24;100860.91;;;-0.73;68.11
44138;BME280;29800;55.942;37.314;2023-01-25T04:10:53;100857.09;;;-0.70;68.03
44138;BME280;29800;55.942;37.314;2023-01-25T04:13:21;100858.63;;;-0.68;67.89
44138;BME280;29800;55.942;37.314;2023-01-25T04:15:49;100860.63;;;-0.70;68.04
44138;BME280;29800;55.942;37.314;2023-01-25T04:18:27;100854.69;;;-0.73;68.08
44138;BME280;29800;55.942;37.314;2023-01-25T04:20:55;100850.44;;;-0.76;68.09
44138;BME280;29800;55.942;37.314;2023-01-25T04:23:22;100852.75;;;-0.81;67.77
44138;BME280;29800;55.942;37.314;2023-01-25T04:26:00;100853.44;;;-0.79;68.20
44138;BME280;29800;55.942;37.314;2023-01-25T04:28:27;100855.59;;;-0.83;68.47
44138;BME280;29800;55.942;37.314;2023-01-25T04:30:54;100851.28;;;-0.76;68.23
44138;BME280;29800;55.942;37.314;2023-01-25T04:33:24;100860.06;;;-0.73;68.05
44138;BME280;29800;55.942;37.314;2023-01-25T04:35:50;100868.28;;;-0.75;67.81
44138;BME280;29800;55.942;37.314;2023-01-25T04:38:18;100861.06;;;-0.75;67.99
44138;BME280;29800;55.942;37.314;2023-01-25T04:40:45;100866.00;;;-0.70;67.85
44138;BME280;29800;55.942;37.314;2023-01-25T04:43:12;100865.69;;;-0.67;67.77
44138;BME280;29800;55.942;37.314;2023-01-25T04:45:39;100859.31;;;-0.66;67.90
44138;BME280;29800;55.942;37.314;2023-01-25T04:48:13;100853.72;;;-0.54;67.89
44138;BME280;29800;55.942;37.314;2023-01-25T04:50:46;100855.53;;;-0.45;67.28
44138;BME280;29800;55.942;37.314;2023-01-25T04:53:13;100854.63;;;-0.36;67.10
44138;BME280;29800;55.942;37.314;2023-01-25T04:55:39;100855.41;;;-0.26;66.89
44138;BME280;29800;55.942;37.314;2023-01-25T04:58:09;100855.63;;;-0.19;66.90
44138;BME280;29800;55.942;37.314;2023-01-25T05:00:37;100870.63;;;-0.16;66.42
44138;BME280;29800;55.942;37.314;2023-01-25T05:03:04;100865.22;;;-0.16;65.88
44138;BME280;29800;55.942;37.314;2023-01-25T05:05:30;100868.19;;;-0.10;65.66
44138;BME280;29800;55.942;37.314;2023-01-25T05:08:00;100871.25;;;-0.05;65.26
44138;BME280;29800;55.942;37.314;2023-01-25T05:10:28;100862.31;;;-0.05;65.07
44138;BME280;29800;55.942;37.314;2023-01-25T05:13:23;100866.41;;;-0.01;64.72
44138;BME280;29800;55.942;37.314;2023-01-25T05:15:57;100865.25;;;0.02;65.07
44138;BME280;29800;55.942;37.314;2023-01-25T05:18:23;100871.72;;;0.09;64.74
44138;BME280;29800;55.942;37.314;2023-01-25T05:20:53;100878.09;;;0.26;64.23
44138;BME280;29800;55.942;37.314;2023-01-25T05:23:22;100872.47;;;0.37;63.84
44138;BME280;29800;55.942;37.314;2023-01-25T05:25:49;100875.53;;;0.42;63.43
44138;BME280;29800;55.942;37.314;2023-01-25T05:28:35;100877.97;;;0.53;63.71
44138;BME280;29800;55.942;37.314;2023-01-25T05:31:19;100869.91;;;0.53;63.50
44138;BME280;29800;55.942;37.314;2023-01-25T05:33:46;100863.88;;;0.60;63.22
44138;BME280;29800;55.942;37.314;2023-01-25T05:36:12;100854.47;;;0.64;62.55
44138;BME280;29800;55.942;37.314;2023-01-25T05:38:38;100843.38;;;0.67;62.50
44138;BME280;29800;55.942;37.314;2023-01-25T05:41:07;100845.44;;;0.73;62.75
44138;BME280;29800;55.942;37.314;2023-01-25T05:43:33;100843.28;;;0.77;62.47
44138;BME280;29800;55.942;37.314;2023-01-25T05:46:02;100834.41;;;0.84;62.05
44138;BME280;29800;55.942;37.314;2023-01-25T05:48:30;100844.22;;;0.94;61.89
44138;BME280;29800;55.942;37.314;2023-01-25T05:50:57;100853.19;;;1.02;61.89
44138;BME280;29800;55.942;37.314;2023-01-25T05:53:25;100855.41;;;1.07;61.67
44138;BME280;29800;55.942;37.314;2023-01-25T05:55:51;100851.38;;;1.11;61.14
44138;BME280;29800;55.942;37.314;2023-01-25T05:58:17;100851.88;;;1.15;60.71
44138;BME280;29800;55.942;37.314;2023-01-25T06:00:43;100849.34;;;1.13;60.60
44138;BME280;29800;55.942;37.314;2023-01-25T06:03:16;100853.13;;;1.20;60.73
44138;BME280;29800;55.942;37.314;2023-01-25T06:05:42;100854.47;;;1.24;60.32
44138;BME280;29800;55.942;37.314;2023-01-25T06:08:08;100847.56;;;1.22;59.85
44138;BME280;29800;55.942;37.314;2023-01-25T06:10:44;100851.06;;;1.14;59.95
44138;BME280;29800;55.942;37.314;2023-01-25T06:13:11;100849.69;;;1.10;60.74
44138;BME280;29800;55.942;37.314;2023-01-25T06:15:37;100853.56;;;1.07;61.15
44138;BME280;29800;55.942;37.314;2023-01-25T06:18:23;100852.75;;;1.15;60.39
44138;BME280;29800;55.942;37.314;2023-01-25T06:21:10;100855.41;;;1.07;60.82
44138;BME280;29800;55.942;37.314;2023-01-25T06:23:37;100862.44;;;1.00;60.73
44138;BME280;29800;55.942;37.314;2023-01-25T06:26:05;100859.75;;;1.00;61.33
44138;BME280;29800;55.942;37.314;2023-01-25T06:28:33;100861.16;;;1.12;60.95
44138;BME280;29800;55.942;37.314;2023-01-25T06:31:14;100865.97;;;1.26;61.06
44138;BME280;29800;55.942;37.314;2023-01-25T06:33:42;100863.09;;;1.28;60.33
44138;BME280;29800;55.942;37.314;2023-01-25T06:36:14;100866.66;;;1.37;60.39
44138;BME280;29800;55.942;37.314;2023-01-25T06:38:40;100861.59;;;1.34;60.09
44138;BME280;29800;55.942;37.314;2023-01-25T06:41:09;100866.19;;;1.41;59.96
44138;BME280;29800;55.942;37.314;2023-01-25T06:43:36;100859.41;;;1.37;59.65
44138;BME280;29800;55.942;37.314;2023-01-25T06:46:05;100862.47;;;1.42;60.02
44138;BME280;29800;55.942;37.314;2023-01-25T06:48:32;100862.31;;;1.44;59.85
44138;BME280;29800;55.942;37.314;2023-01-25T06:51:05;100861.00;;;1.56;59.44
44138;BME280;29800;55.942;37.314;2023-01-25T06:53:34;100863.84;;;1.46;60.23
44138;BME280;29800;55.942;37.314;2023-01-25T06:56:03;100869.91;;;1.49;59.12
44138;BME280;29800;55.942;37.314;2023-01-25T06:58:31;100872.25;;;1.43;59.77
44138;BME280;29800;55.942;37.314;2023-01-25T07:01:02;100857.78;;;1.44;59.84
44138;BME280;29800;55.942;37.314;2023-01-25T07:03:30;100861.44;;;1.35;59.52
44138;BME280;29800;55.942;37.314;2023-01-25T07:06:00;100862.25;;;1.27;60.12
44138;BME280;29800;55.942;37.314;2023-01-25T07:08:27;100849.19;;;1.15;60.58
44138;BME280;29800;55.942;37.314;2023-01-25T07:10:57;100851.72;;;1.16;60.86
44138;BME280;29800;55.942;37.314;2023-01-25T07:13:24;100848.00;;;1.09;59.65
44138;BME280;29800;55.942;37.314;2023-01-25T07:15:59;100848.16;;;1.07;60.45
44138;BME280;29800;55.942;37.314;2023-01-25T07:18:26;100840.81;;;0.91;60.76
44138;BME280;29800;55.942;37.314;2023-01-25T07:20:52;100840.81;;;0.91;60.28
44138;BME280;29800;55.942;37.314;2023-01-25T07:23:19;100836.63;;;0.89;61.27
44138;BME280;29800;55.942;37.314;2023-01-25T07:25:46;100841.13;;;0.88;60.97
44138;BME280;29800;55.942;37.314;2023-01-25T07:28:13;100844.66;;;0.81;60.38
44138;BME280;29800;55.942;37.314;2023-01-25T07:30:40;100833.34;;;0.77;61.51
44138;BME280;29800;55.942;37.314;2023-01-25T07:33:07;100833.34;;;0.77;60.81
44138;BME280;29800;55.942;37.314;2023-01-25T07:35:33;100833.72;;;0.82;60.80
44138;BME280;29800;55.942;37.314;2023-01-25T07:38:00;100839.25;;;0.81;61.08
44138;BME280;29800;55.942;37.314;2023-01-25T07:40:26;100852.28;;;0.85;60.66
44138;BME280;29800;55.942;37.314;2023-01-25T07:42:52;100839.47;;;0.87;60.87
44138;BME280;29800;55.942;37.314;2023-01-25T07:45:19;100840.16;;;0.89;60.59
44138;BME280;29800;55.942;37.314;2023-01-25T07:47:45;100844.34;;;0.84;60.98
44138;BME280;29800;55.942;37.314;2023-01-25T07:50:12;100856.59;;;0.78;60.87
44138;BME280;29800;55.942;37.314;2023-01-25T07:52:38;100845.81;;;0.78;61.33
44138;BME280;29800;55.942;37.314;2023-01-25T07:55:04;100849.84;;;0.74;61.12
44138;BME280;29800;55.942;37.314;2023-01-25T07:57:30;100851.81;;;0.72;61.58
44138;BME280;29800;55.942;37.314;2023-01-25T07:59:57;100853.00;;;0.69;61.15
44138;BME280;29800;55.942;37.314;2023-01-25T08:02:23;100851.47;;;0.67;61.30
44138;BME280;29800;55.942;37.314;2023-01-25T08:04:49;100847.78;;;0.68;61.38
44138;BME280;29800;55.942;37.314;2023-01-25T08:07:15;100845.22;;;0.66;61.64
44138;BME280;29800;55.942;37.314;2023-01-25T08:09:42;100857.56;;;0.69;61.36
44138;BME280;29800;55.942;37.314;2023-01-25T08:12:08;100839.69;;;0.68;61.77
44138;BME280;29800;55.942;37.314;2023-01-25T08:14:34;100840.53;;;0.68;61.21
44138;BME280;29800;55.942;37.314;2023-01-25T08:17:01;100840.00;;;0.65;61.44
44138;BME280;29800;55.942;37.314;2023-01-25T08:19:27;100834.09;;;0.61;61.36
44138;BME280;29800;55.942;37.314;2023-01-25T08:21:53;100829.53;;;0.62;61.86
44138;BME280;29800;55.942;37.314;2023-01-25T08:24:19;100830.41;;;0.70;61.52
44138;BME280;29800;55.942;37.314;2023-01-25T08:26:46;100838.19;;;0.73;61.31
44138;BME280;29800;55.942;37.314;2023-01-25T08:29:12;100829.94;;;0.75;61.43
44138;BME280;29800;55.942;37.314;2023-01-25T08:31:40;100833.00;;;0.80;61.55
44138;BME280;29800;55.942;37.314;2023-01-25T08:34:08;100837.03;;;0.76;61.31
44138;BME280;29800;55.942;37.314;2023-01-25T08:36:35;100828.06;;;0.67;61.60
44138;BME280;29800;55.942;37.314;2023-01-25T08:39:06;100822.03;;;0.73;62.23
44138;BME280;29800;55.942;37.314;2023-01-25T08:41:33;100823.94;;;0.81;61.82
44138;BME280;29800;55.942;37.314;2023-01-25T08:44:00;100813.81;;;0.83;61.56
44138;BME280;29800;55.942;37.314;2023-01-25T08:46:27;100807.78;;;0.89;61.34
44138;BME280;29800;55.942;37.314;2023-01-25T08:48:55;100807.78;;;0.89;61.54
44138;BME280;29800;55.942;37.314;2023-01-25T08:51:22;100803.41;;;0.88;61.71
44138;BME280;29800;55.942;37.314;2023-01-25T08:53:49;100801.84;;;0.78;62.16
44138;BME280;29800;55.942;37.314;2023-01-25T08:56:16;100798.84;;;0.81;61.92
44138;BME280;29800;55.942;37.314;2023-01-25T08:58:47;100796.13;;;0.81;61.83
44138;BME280;29800;55.942;37.314;2023-01-25T09:01:15;100790.09;;;0.61;61.76
44138;BME280;29800;55.942;37.314;2023-01-25T09:03:47;100791.91;;;0.52;62.79
44138;BME280;29800;55.942;37.314;2023-01-25T09:06:14;100789.84;;;0.46;62.79
44138;BME280;29800;55.942;37.314;2023-01-25T09:08:41;100777.25;;;0.46;62.58
44138;BME280;29800;55.942;37.314;2023-01-25T09:11:12;100787.75;;;0.58;63.52
44138;BME280;29800;55.942;37.314;2023-01-25T09:13:39;100785.44;;;0.63;63.02
44138;BME280;29800;55.942;37.314;2023-01-25T09:16:16;100777.69;;;0.68;62.65
44138;BME280;29800;55.942;37.314;2023-01-25T09:18:44;100773.31;;;0.67;62.72
44138;BME280;29800;55.942;37.314;2023-01-25T09:21:16;100766.13;;;0.76;62.35
44138;BME280;29800;55.942;37.314;2023-01-25T09:23:43;100760.91;;;0.74;62.31
44138;BME280;29800;55.942;37.314;2023-01-25T09:26:10;100763.56;;;0.66;62.24
44138;BME280;29800;55.942;37.314;2023-01-25T09:28:36;100752.38;;;0.61;62.66
44138;BME280;29800;55.942;37.314;2023-01-25T09:31:04;100749.38;;;0.64;62.50
44138;BME280;29800;55.942;37.314;2023-01-25T09:34:00;100750.06;;;0.66;62.37
44138;BME280;29800;55.942;37.314;2023-01-25T09:36:26;100748.38;;;0.65;62.39
44138;BME280;29800;55.942;37.314;2023-01-25T09:38:52;100733.19;;;0.64;62.59
44138;BME280;29800;55.942;37.314;2023-01-25T09:46:58;100711.22;;;0.85;62.06
44138;BME280;29800;55.942;37.314;2023-01-25T09:55:30;100704.84;;;0.86;61.76
44138;BME280;29800;55.942;37.314;2023-01-25T09:58:00;100705.00;;;0.84;62.09
44138;BME280;29800;55.942;37.314;2023-01-25T10:00:35;100698.09;;;0.90;62.19
44138;BME280;29800;55.942;37.314;2023-01-25T10:03:20;100699.72;;;1.17;61.83
44138;BME280;29800;55.942;37.314;2023-01-25T10:05:57;100699.00;;;1.07;61.34
44138;BME280;29800;55.942;37.314;2023-01-25T10:13:47;100696.34;;;1.15;61.38
44138;BME280;29800;55.942;37.314;2023-01-25T10:19:03;100698.53;;;1.12;61.40
44138;BME280;29800;55.942;37.314;2023-01-25T10:21:43;100696.00;;;1.10;61.66
44138;BME280;29800;55.942;37.314;2023-01-25T10:24:30;100697.28;;;0.98;61.93
44138;BME280;29800;55.942;37.314;2023-01-25T10:29:38;100683.50;;;1.01;61.98
44138;BME280;29800;55.942;37.314;2023-01-25T10:32:18;100682.00;;;1.15;62.14
44138;BME280;29800;55.942;37.314;2023-01-25T10:34:49;100678.47;;;1.14;62.13
44138;BME280;29800;55.942;37.314;2023-01-25T10:37:22;100668.31;;;1.08;61.89
44138;BME280;29800;55.942;37.314;2023-01-25T10:42:21;100663.22;;;0.88;62.28
44138;BME280;29800;55.942;37.314;2023-01-25T10:44:50;100659.16;;;0.76;62.78
44138;BME280;29800;55.942;37.314;2023-01-25T10:47:25;100661.69;;;0.78;63.26
44138;BME280;29800;55.942;37.314;2023-01-25T10:49:57;100654.44;;;0.78;63.48
44138;BME280;29800;55.942;37.314;2023-01-25T10:52:24;100656.94;;;0.71;63.41
44138;BME280;29800;55.942;37.314;2023-01-25T10:57:42;100660.50;;;0.80;63.17
44138;BME280;29800;55.942;37.314;2023-01-25T11:00:24;100657.00;;;0.88;63.57
44138;BME280;29800;55.942;37.314;2023-01-25T11:02:52;100648.06;;;0.79;63.27
44138;BME280;29800;55.942;37.314;2023-01-25T11:07:45;100653.13;;;0.82;63.07
44138;BME280;29800;55.942;37.314;2023-01-25T11:10:50;100651.28;;;0.91;62.80
44138;BME280;29800;55.942;37.314;2023-01-25T11:13:28;100649.41;;;0.83;63.19
44138;BME280;29800;55.942;37.314;2023-01-25T11:18:30;100630.00;;;0.71;63.01
44138;BME280;29800;55.942;37.314;2023-01-25T11:21:14;100629.19;;;0.79;63.48
44138;BME280;29800;55.942;37.314;2023-01-25T11:23:59;100633.53;;;0.80;62.85
44138;BME280;29800;55.942;37.314;2023-01-25T11:26:26;100629.13;;;0.63;62.33
44138;BME280;29800;55.942;37.314;2023-01-25T11:29:06;100627.28;;;0.63;63.41
44138;BME280;29800;55.942;37.314;2023-01-25T11:31:33;100631.28;;;0.51;62.99
44138;BME280;29800;55.942;37.314;2023-01-25T11:33:59;100614.25;;;0.50;63.15
44138;BME280;29800;55.942;37.314;2023-01-25T11:45:18;100629.03;;;0.81;62.39
44138;BME280;29800;55.942;37.314;2023-01-25T11:59:55;100608.00;;;0.42;60.73
44138;BME280;29800;55.942;37.314;2023-01-25T12:02:42;100610.88;;;0.40;61.20
44138;BME280;29800;55.942;37.314;2023-01-25T12:19:15;100594.31;;;0.27;60.96
44138;BME280;29800;55.942;37.314;2023-01-25T12:34:51;100573.84;;;0.50;60.64
44138;BME280;29800;55.942;37.314;2023-01-25T12:37:31;100569.84;;;0.54;60.93
44138;BME280;29800;55.942;37.314;2023-01-25T12:40:13;100561.44;;;0.66;60.56
44138;BME280;29800;55.942;37.314;2023-01-25T12:42:54;100563.63;;;0.79;60.65
44138;BME280;29800;55.942;37.314;2023-01-25T12:45:34;100575.28;;;0.87;60.29
44138;BME280;29800;55.942;37.314;2023-01-25T12:48:15;100568.88;;;0.97;60.10
44138;BME280;29800;55.942;37.314;2023-01-25T12:50:58;100558.09;;;0.97;60.13
44138;BME280;29800;55.942;37.314;2023-01-25T12:53:32;100565.66;;;0.85;60.20
44138;BME280;29800;55.942;37.314;2023-01-25T12:56:00;100563.31;;;0.82;59.25
44138;BME280;29800;55.942;37.314;2023-01-25T12:58:53;100560.13;;;0.95;59.85
44138;BME280;29800;55.942;37.314;2023-01-25T13:01:50;100556.75;;;0.93;60.37
44138;BME280;29800;55.942;37.314;2023-01-25T13:04:30;100553.56;;;0.81;60.30
44138;BME280;29800;55.942;37.314;2023-01-25T13:07:18;100547.31;;;0.80;60.13
44138;BME280;29800;55.942;37.314;2023-01-25T13:10:00;100550.88;;;0.89;59.83
44138;BME280;29800;55.942;37.314;2023-01-25T13:12:28;100546.78;;;0.77;59.87
44138;BME280;29800;55.942;37.314;2023-01-25T13:14:54;100537.22;;;0.74;59.52
44138;BME280;29800;55.942;37.314;2023-01-25T13:19:49;100512.09;;;0.65;60.04
44138;BME280;29800;55.942;37.314;2023-01-25T13:25:20;100513.94;;;0.57;61.17
44138;BME280;29800;55.942;37.314;2023-01-25T13:27:47;100500.78;;;0.45;60.97
44138;BME280;29800;55.942;37.314;2023-01-25T13:32:56;100487.81;;;0.41;61.50
44138;BME280;29800;55.942;37.314;2023-01-25T13:35:39;100481.41;;;0.42;61.53
44138;BME280;29800;55.942;37.314;2023-01-25T13:38:30;100479.88;;;0.39;61.67
44138;BME280;29800;55.942;37.314;2023-01-25T13:41:07;100478.03;;;0.23;62.09
44138;BME280;29800;55.942;37.314;2023-01-25T13:43:42;100479.00;;;0.22;62.37
44138;BME280;29800;55.942;37.314;2023-01-25T13:46:11;100478.50;;;0.18;62.23
44138;BME280;29800;55.942;37.314;2023-01-25T13:48:51;100473.47;;;0.32;62.06
44138;BME280;29800;55.942;37.314;2023-01-25T13:51:19;100462.72;;;0.32;61.69
44138;BME280;29800;55.942;37.314;2023-01-25T13:53:56;100474.84;;;0.44;62.18
44138;BME280;29800;55.942;37.314;2023-01-25T13:56:29;100474.16;;;0.42;62.00
44138;BME280;29800;55.942;37.314;2023-01-25T13:58:55;100472.84;;;0.38;61.82
44138;BME280;29800;55.942;37.314;2023-01-25T14:01:22;100474.16;;;0.42;62.03
44138;BME280;29800;55.942;37.314;2023-01-25T14:03:55;100474.84;;;0.52;62.29
44138;BME280;29800;55.942;37.314;2023-01-25T14:08:50;100467.47;;;0.54;61.66
44138;BME280;29800;55.942;37.314;2023-01-25T14:11:26;100461.22;;;0.54;61.91
44138;BME280;29800;55.942;37.314;2023-01-25T14:14:34;100464.44;;;0.66;62.72
44138;BME280;29800;55.942;37.314;2023-01-25T14:17:04;100470.81;;;0.57;61.81
44138;BME280;29800;55.942;37.314;2023-01-25T14:19:30;100464.94;;;0.53;61.82
44138;BME280;29800;55.942;37.314;2023-01-25T14:22:32;100460.06;;;0.65;62.36
44138;BME280;29800;55.942;37.314;2023-01-25T14:25:18;100453.34;;;0.69;61.60
44138;BME280;29800;55.942;37.314;2023-01-25T14:27:49;100455.66;;;0.64;62.11
44138;BME280;29800;55.942;37.314;2023-01-25T14:32:44;100447.91;;;0.61;62.27
44138;BME280;29800;55.942;37.314;2023-01-25T14:37:55;100456.69;;;0.63;62.18
44138;BME280;29800;55.942;37.314;2023-01-25T14:40:23;100461.06;;;0.64;62.40
44138;BME280;29800;55.942;37.314;2023-01-25T14:42:51;100468.47;;;0.62;62.51
44138;BME280;29800;55.942;37.314;2023-01-25T14:45:19;100472.84;;;0.63;61.89
44138;BME280;29800;55.942;37.314;2023-01-25T14:47:52;100468.81;;;0.67;62.29
44138;BME280;29800;55.942;37.314;2023-01-25T14:53:05;100459.06;;;0.66;62.01
44138;BME280;29800;55.942;37.314;2023-01-25T14:55:32;100450.28;;;0.64;62.15
44138;BME280;29800;55.942;37.314;2023-01-25T14:57:59;100441.19;;;0.65;62.12
44138;BME280;29800;55.942;37.314;2023-01-25T15:00:27;100427.38;;;0.60;62.24
44138;BME280;29800;55.942;37.314;2023-01-25T15:02:58;100424.53;;;0.61;61.98
44138;BME280;29800;55.942;37.314;2023-01-25T15:05:30;100423.31;;;0.64;62.12